< Typhoon 201006 2010 Season Typhoon 201008 >
Typhoon 201007 (KOMPASU)
General InformationTrack Information on Google MapsDetailed Wind InformationAccess Analytics MapList of All Images || NewsDisaster Info.WeblogTrackbackTyphoon FrontTwiphoonTyphoon Now!Typhoon ImaginationResourceGoogle EarthGE AnimationAtom FeedGeoJSON
Detalied Best Track (Time Zone = UTC)
Year Month Day Hour Lat. Long. Pressure (hPa) Wind (kt) Class Image Chart
2010 8 28 12 18.4 139.0 1008 0 2 Image Chart
2010 8 28 18 19.4 137.7 1006 0 2 Image Chart
2010 8 29 00 20.4 136.4 1004 0 2 Image Chart
2010 8 29 06 21.1 135.3 1004 0 2 Image Chart
2010 8 29 12 21.5 134.4 1002 0 2 Image Chart
2010 8 29 18 22.2 133.2 998 35 3 Image Chart
2010 8 30 00 22.6 132.4 994 45 3 Image Chart
2010 8 30 06 23.3 131.8 990 50 4 Image Chart
2010 8 30 12 23.7 131.2 980 60 4 Image Chart
2010 8 30 18 24.5 130.2 970 70 5 Image Chart
2010 8 30 21 24.8 129.7 965 75 5 Image Chart
2010 8 31 00 25.1 129.4 960 80 5 Image Chart
2010 8 31 03 25.6 128.9 960 80 5 Image Chart
2010 8 31 06 26.2 128.4 960 80 5 Image Chart
2010 8 31 08 26.6 128.1 960 80 5 Image Chart
2010 8 31 09 26.7 127.9 960 80 5 Image Chart
2010 8 31 12 27.4 127.3 960 80 5 Image Chart
2010 8 31 15 28.0 126.7 960 80 5 Image Chart
2010 8 31 18 28.6 126.2 960 80 5 Image Chart
2010 9 1 00 30.3 125.2 965 75 5 Image Chart
2010 9 1 06 32.3 124.7 970 70 5 Image Chart
2010 9 1 12 34.3 124.8 970 70 5 Image Chart
2010 9 1 18 36.5 125.2 980 60 4 Image Chart
2010 9 2 00 38.3 127.2 990 50 4 Image Chart
2010 9 2 06 39.3 129.7 994 45 3 Image Chart
2010 9 2 12 40.0 132.4 998 35 3 Image Chart
2010 9 2 18 40.7 134.8 1002 0 2 Image Chart
2010 9 3 00 41.4 137.4 1004 0 2 Image Chart
2010 9 3 06 42.1 140.3 1004 0 2 Image Chart
2010 9 3 12 41.3 145.0 1006 0 6 Image Chart
2010 9 3 18 40.8 149.3 1002 0 6 Image Chart
2010 9 4 00 39.9 154.0 1000 0 6 Image Chart
2010 9 4 06 39.4 158.8 998 0 6 Image Chart
2010 9 4 12 38.9 163.3 998 0 6 Image Chart
2010 9 4 18 39.7 167.3 996 0 6 Image Chart
2010 9 5 00 41.4 171.4 994 0 6 Image Chart
2010 9 5 06 43.4 174.8 988 0 6 Image Chart
2010 9 5 12 47.2 177.6 984 0 6 Image Chart
2010 9 5 18 50.0 179.3 984 0 6 Image Chart
2010 9 6 00 52.9 179.3 984 0 6 Image Chart
2010 9 6 06 54.4 179.8 984 0 6 Image Chart
2010 9 6 12 56.4 181.4 980 0 6 Image Chart
Japan Meteorological Agency Best Track Data | Correction Date : 2010-10-15
< Typhoon 201006 2010 Season Typhoon 201008 >

Help